Time;durP1;ratioP1;P1;durP2;ratioP2;P2;SDS_P1;SDS_P2;PMS_P1;PMS_P2;Temp;Humidity;BMP_temperature;BMP_pressure;BME280_temperature;BME280_humidity;BME280_pressure;Samples;Min_cycle;Max_cycle;Signal;HPM_P1;HPM_P2
2023/09/03 00:00:22;;;;;;;;;;;;;;;;;;5061949;28;19924;-76
2023/09/03 00:02:49;;;;;;;;;;;;;;;;;;5073418;28;19924;-75
2023/09/03 00:05:16;;;;;;;;;;;;;;;;;;5074032;28;19982;-75
2023/09/03 00:07:43;;;;;;;;;;;;;;;;;;5063014;28;19925;-76
2023/09/03 00:10:10;;;;;;;;;;;;;;;;;;5072090;28;19960;-74
2023/09/03 00:12:37;;;;;;;;;;;;;;;;;;5073973;28;19924;-75
2023/09/03 00:15:04;;;;;;;;;;;;;;;;;;5077063;28;19924;-75
2023/09/03 00:17:31;;;;;;;;;;;;;;;;;;5068912;28;19978;-75
2023/09/03 00:19:58;;;;;;;;;;;;;;;;;;5073168;28;20006;-75
2023/09/03 00:22:25;;;;;;;;;;;;;;;;;;5072510;28;19929;-75
2023/09/03 00:24:52;;;;;;;;;;;;;;;;;;5070308;28;19990;-75
2023/09/03 00:27:19;;;;;;;;;;;;;;;;;;5083888;28;20419;-76
2023/09/03 00:29:46;;;;;;;;;;;;;;;;;;5066473;28;19924;-76
2023/09/03 00:32:13;;;;;;;;;;;;;;;;;;5058688;28;20272;-75
2023/09/03 00:34:40;;;;;;;;;;;;;;;;;;5070678;28;19924;-77
2023/09/03 00:37:07;;;;;;;;;;;;;;;;;;5083783;28;19977;-75
2023/09/03 00:39:34;;;;;;;;;;;;;;;;;;5080608;28;19964;-75
2023/09/03 00:42:01;;;;;;;;;;;;;;;;;;5086041;28;21341;-75
2023/09/03 00:44:28;;;;;;;;;;;;;;;;;;5078093;28;20307;-75
2023/09/03 00:46:55;;;;;;;;;;;;;;;;;;5073513;28;19928;-75
2023/09/03 00:49:22;;;;;;;;;;;;;;;;;;5072772;28;20291;-76
2023/09/03 00:51:49;;;;;;;;;;;;;;;;;;5064885;28;19986;-74
2023/09/03 00:54:16;;;;;;;;;;;;;;;;;;5073140;28;20002;-75
2023/09/03 00:56:43;;;;;;;;;;;;;;;;;;5073459;28;19970;-74
2023/09/03 00:59:10;;;;;;;;;;;;;;;;;;5069898;28;20371;-76
2023/09/03 01:01:37;;;;;;;;;;;;;;;;;;5071386;28;19970;-74
2023/09/03 01:04:04;;;;;;;;;;;;;;;;;;5068743;28;19933;-75
2023/09/03 01:06:31;;;;;;;;;;;;;;;;;;5069369;28;19931;-74
2023/09/03 01:08:58;;;;;;;;;;;;;;;;;;5067718;28;20354;-74
2023/09/03 01:11:26;;;;;;;;;;;;;;;;;;5054299;28;19971;-74
2023/09/03 01:13:53;;;;;;;;;;;;;;;;;;5072008;28;19925;-75
2023/09/03 01:16:20;;;;;;;;;;;;;;;;;;5072169;28;19928;-73
2023/09/03 01:18:47;;;;;;;;;;;;;;;;;;5067878;28;19963;-74
2023/09/03 01:21:14;;;;;;;;;;;;;;;;;;5074684;28;20348;-74
2023/09/03 01:23:41;;;;;;;;;;;;;;;;;;5082744;28;19925;-74
2023/09/03 01:26:08;;;;;;;;;;;;;;;;;;5066254;28;20042;-75
2023/09/03 01:28:35;;;;;;;;;;;;;;;;;;5076845;28;19924;-75
2023/09/03 01:31:02;;;;;;;;;;;;;;;;;;5074419;28;19924;-75
2023/09/03 01:33:29;;;;;;;;;;;;;;;;;;5066847;28;19970;-76
2023/09/03 01:35:57;;;;;;;;;;;;;;;;;;5076112;28;20007;-74
2023/09/03 01:38:24;;;;;;;;;;;;;;;;;;5076996;28;20057;-74
2023/09/03 01:40:51;;;;;;;;;;;;;;;;;;5074460;28;20037;-74
2023/09/03 01:43:18;;;;;;;;;;;;;;;;;;5084088;28;19924;-74
2023/09/03 01:45:45;;;;;;;;;;;;;;;;;;5065325;28;19924;-75
2023/09/03 01:48:12;;;;;;;;;;;;;;;;;;5078162;28;19970;-74
2023/09/03 01:50:39;;;;;;;;;;;;;;;;;;5063717;28;19925;-74
2023/09/03 01:53:06;;;;;;;;;;;;;;;;;;5070137;28;19924;-75
2023/09/03 01:55:33;;;;;;;;;;;;;;;;;;5072397;28;19932;-75
2023/09/03 01:58:00;;;;;;;;;;;;;;;;;;5070889;28;19978;-75
2023/09/03 02:00:28;;;;;;;;;;;;;;;;;;5067094;28;20273;-75
2023/09/03 02:02:54;;;;;;;;;;;;;;;;;;5052051;28;20376;-76
2023/09/03 02:05:21;;;;;;;;;;;;;;;;;;5064682;28;20013;-76
2023/09/03 02:07:48;;;;;;;;;;;;;;;;;;5069734;28;19924;-76
2023/09/03 02:10:16;;;;;;;;;;;;;;;;;;5065597;28;20387;-76
2023/09/03 02:12:43;;;;;;;;;;;;;;;;;;5072876;28;19967;-75
2023/09/03 02:15:10;;;;;;;;;;;;;;;;;;5063570;28;19925;-76
2023/09/03 02:17:37;;;;;;;;;;;;;;;;;;5057430;28;19924;-76
2023/09/03 02:20:04;;;;;;;;;;;;;;;;;;5061132;28;20504;-77
2023/09/03 02:22:31;;;;;;;;;;;;;;;;;;5075172;28;19974;-76
2023/09/03 02:24:58;;;;;;;;;;;;;;;;;;5075380;28;19925;-77
2023/09/03 02:27:25;;;;;;;;;;;;;;;;;;5082382;28;19960;-76
2023/09/03 02:29:52;;;;;;;;;;;;;;;;;;5076922;28;19967;-77
2023/09/03 02:32:19;;;;;;;;;;;;;;;;;;5087005;28;19924;-75
2023/09/03 02:34:46;;;;;;;;;;;;;;;;;;5081885;28;19977;-74
2023/09/03 02:37:13;;;;;;;;;;;;;;;;;;5065006;28;19978;-74
2023/09/03 02:39:41;;;;;;;;;;;;;;;;;;5075350;28;19970;-75
2023/09/03 02:42:08;;;;;;;;;;;;;;;;;;5089114;28;19946;-76
2023/09/03 02:44:35;;;;;;;;;;;;;;;;;;5085072;28;19955;-75
2023/09/03 02:47:02;;;;;;;;;;;;;;;;;;5082222;28;19967;-74
2023/09/03 02:49:29;;;;;;;;;;;;;;;;;;5088496;28;19968;-74
2023/09/03 02:51:56;;;;;;;;;;;;;;;;;;5074689;28;19925;-75
2023/09/03 02:54:23;;;;;;;;;;;;;;;;;;5076413;28;20436;-74
2023/09/03 02:56:50;;;;;;;;;;;;;;;;;;5077466;28;19924;-74
2023/09/03 02:59:17;;;;;;;;;;;;;;;;;;5084210;28;19925;-75
2023/09/03 03:01:44;;;;;;;;;;;;;;;;;;5093270;28;19969;-75
2023/09/03 03:04:11;;;;;;;;;;;;;;;;;;5076562;28;19967;-75
2023/09/03 03:06:38;;;;;;;;;;;;;;;;;;5076832;28;19931;-74
2023/09/03 03:09:05;;;;;;;;;;;;;;;;;;5072946;28;19931;-75
2023/09/03 03:11:32;;;;;;;;;;;;;;;;;;5061548;28;20946;-75
2023/09/03 03:13:59;;;;;;;;;;;;;;;;;;5069792;28;19925;-75
2023/09/03 03:16:26;;;;;;;;;;;;;;;;;;5057375;28;19932;-74
2023/09/03 03:18:53;;;;;;;;;;;;;;;;;;5075068;28;19924;-75
2023/09/03 03:21:22;;;;;;;;;;;;;;;;;;5075440;28;19998;-75
2023/09/03 03:23:49;;;;;;;;;;;;;;;;;;5074330;28;20007;-75
2023/09/03 03:26:16;;;;;;;;;;;;;;;;;;5068321;28;19925;-76
2023/09/03 03:28:43;;;;;;;;;;;;;;;;;;5071939;28;20379;-76
2023/09/03 03:31:10;;;;;;;;;;;;;;;;;;5073134;28;19974;-75
2023/09/03 03:33:37;;;;;;;;;;;;;;;;;;5081367;28;20011;-76
2023/09/03 03:36:04;;;;;;;;;;;;;;;;;;5074469;28;19924;-76
2023/09/03 03:38:31;;;;;;;;;;;;;;;;;;5081281;28;19985;-76
2023/09/03 03:40:58;;;;;;;;;;;;;;;;;;5078847;28;19978;-75
2023/09/03 03:43:25;;;;;;;;;;;;;;;;;;5071002;28;19990;-75
2023/09/03 03:45:52;;;;;;;;;;;;;;;;;;5091856;28;19924;-76
2023/09/03 03:48:19;;;;;;;;;;;;;;;;;;5076408;28;19970;-76
2023/09/03 03:50:46;;;;;;;;;;;;;;;;;;5056269;28;19925;-75
2023/09/03 03:53:13;;;;;;;;;;;;;;;;;;5060059;28;20346;-76
2023/09/03 03:55:40;;;;;;;;;;;;;;;;;;5074022;28;19982;-76
2023/09/03 03:58:08;;;;;;;;;;;;;;;;;;5072997;28;19955;-75
2023/09/03 04:00:35;;;;;;;;;;;;;;;;;;5068971;28;19943;-75
2023/09/03 04:03:02;;;;;;;;;;;;;;;;;;5071030;28;19989;-75
2023/09/03 04:05:29;;;;;;;;;;;;;;;;;;5073894;28;19925;-75
2023/09/03 04:07:56;;;;;;;;;;;;;;;;;;5056200;28;20380;-75
2023/09/03 04:10:23;;;;;;;;;;;;;;;;;;5058472;28;19924;-75
2023/09/03 04:12:50;;;;;;;;;;;;;;;;;;5073611;28;19971;-74
2023/09/03 04:15:17;;;;;;;;;;;;;;;;;;5073984;28;20434;-75
2023/09/03 04:17:44;;;;;;;;;;;;;;;;;;5069370;28;19932;-75
2023/09/03 04:20:12;;;;;;;;;;;;;;;;;;5073656;28;19963;-74
2023/09/03 04:22:39;;;;;;;;;;;;;;;;;;5070957;28;19940;-74
2023/09/03 04:25:06;;;;;;;;;;;;;;;;;;5074573;28;19928;-74
2023/09/03 04:27:33;;;;;;;;;;;;;;;;;;5082812;28;19930;-75
2023/09/03 04:30:00;;;;;;;;;;;;;;;;;;5075055;28;19976;-75
2023/09/03 04:32:27;;;;;;;;;;;;;;;;;;5068417;28;19967;-74
2023/09/03 04:34:54;;;;;;;;;;;;;;;;;;5063596;28;20031;-74
2023/09/03 04:37:21;;;;;;;;;;;;;;;;;;5070257;28;19925;-74
2023/09/03 04:39:48;;;;;;;;;;;;;;;;;;5065538;28;20394;-75
2023/09/03 04:42:15;;;;;;;;;;;;;;;;;;5070219;28;19924;-75
2023/09/03 04:44:42;;;;;;;;;;;;;;;;;;5075618;28;19924;-74
2023/09/03 04:47:09;;;;;;;;;;;;;;;;;;5076980;28;19932;-74
2023/09/03 04:49:36;;;;;;;;;;;;;;;;;;5071372;28;19924;-75
2023/09/03 04:52:03;;;;;;;;;;;;;;;;;;5076093;28;19924;-75
2023/09/03 04:54:31;;;;;;;;;;;;;;;;;;5093609;28;19924;-75
2023/09/03 04:56:58;;;;;;;;;;;;;;;;;;5064455;28;20289;-75
2023/09/03 04:59:25;;;;;;;;;;;;;;;;;;5080875;28;20037;-75
2023/09/03 05:01:52;;;;;;;;;;;;;;;;;;5077201;28;19963;-75
2023/09/03 05:04:19;;;;;;;;;;;;;;;;;;5072647;28;19924;-75
2023/09/03 05:06:46;;;;;;;;;;;;;;;;;;5062699;28;19924;-75
2023/09/03 05:09:13;;;;;;;;;;;;;;;;;;5069246;28;19970;-75
2023/09/03 05:11:42;;;;;;;;;;;;;;;;;;5090532;28;19932;-76
2023/09/03 05:14:09;;;;;;;;;;;;;;;;;;5068850;28;20003;-75
2023/09/03 05:16:36;;;;;;;;;;;;;;;;;;5066069;28;20318;-75
2023/09/03 05:19:04;;;;;;;;;;;;;;;;;;5074531;28;19924;-75
2023/09/03 05:21:31;;;;;;;;;;;;;;;;;;5065995;28;19933;-77
2023/09/03 05:23:58;;;;;;;;;;;;;;;;;;5059852;28;20022;-77
2023/09/03 05:26:25;;;;;;;;;;;;;;;;;;5078084;28;19925;-76
2023/09/03 05:28:52;;;;;;;;;;;;;;;;;;5069661;28;20354;-76
2023/09/03 05:31:20;;;;;;;;;;;;;;;;;;5070533;28;19924;-75
2023/09/03 05:33:47;;;;;;;;;;;;;;;;;;5069278;28;19925;-75
2023/09/03 05:36:14;;;;;;;;;;;;;;;;;;5071689;28;19924;-75
2023/09/03 05:38:42;;;;;;;;;;;;;;;;;;5055003;28;19975;-76
2023/09/03 05:41:10;;;;;;;;;;;;;;;;;;5084665;28;19924;-74
2023/09/03 05:43:37;;;;;;;;;;;;;;;;;;5081931;28;19924;-74
2023/09/03 05:46:04;;;;;;;;;;;;;;;;;;5084975;28;20346;-74
2023/09/03 05:48:31;;;;;;;;;;;;;;;;;;5069228;28;19928;-75
2023/09/03 05:50:59;;;;;;;;;;;;;;;;;;5071153;28;20332;-74
2023/09/03 05:53:26;;;;;;;;;;;;;;;;;;5071134;28;19936;-74
2023/09/03 05:55:54;;;;;;;;;;;;;;;;;;5070402;28;20042;-74
2023/09/03 05:58:21;;;;;;;;;;;;;;;;;;5070351;28;19971;-75
2023/09/03 06:00:48;;;;;;;;;;;;;;;;;;5067806;28;20376;-73
2023/09/03 06:03:15;;;;;;;;;;;;;;;;;;5069204;28;19931;-75
2023/09/03 06:05:42;;;;;;;;;;;;;;;;;;5071746;28;19924;-75
2023/09/03 06:08:09;;;;;;;;;;;;;;;;;;5066186;28;20363;-75
2023/09/03 06:10:37;;;;;;;;;;;;;;;;;;5067958;28;19925;-75
2023/09/03 06:13:04;;;;;;;;;;;;;;;;;;5060517;28;19925;-75
2023/09/03 06:15:31;;;;;;;;;;;;;;;;;;5071251;28;20006;-75
2023/09/03 06:17:59;;;;;;;;;;;;;;;;;;5069218;28;19924;-75
2023/09/03 06:20:26;;;;;;;;;;;;;;;;;;5070427;28;19932;-76
2023/09/03 06:22:53;;;;;;;;;;;;;;;;;;5059235;28;19982;-75
2023/09/03 06:25:20;;;;;;;;;;;;;;;;;;5083745;28;19966;-75
2023/09/03 06:27:47;;;;;;;;;;;;;;;;;;5071591;28;19931;-75
2023/09/03 06:30:14;;;;;;;;;;;;;;;;;;5078796;28;20387;-75
2023/09/03 06:32:42;;;;;;;;;;;;;;;;;;5070931;28;19939;-74
2023/09/03 06:35:09;;;;;;;;;;;;;;;;;;5071612;28;19930;-73
2023/09/03 06:37:36;;;;;;;;;;;;;;;;;;5062169;28;19964;-74
2023/09/03 06:40:03;;;;;;;;;;;;;;;;;;5078147;28;19982;-74
2023/09/03 06:42:30;;;;;;;;;;;;;;;;;;5073323;28;19932;-78
2023/09/03 06:44:57;;;;;;;;;;;;;;;;;;5070453;28;20010;-74
2023/09/03 06:47:24;;;;;;;;;;;;;;;;;;5062047;28;20463;-74
2023/09/03 06:49:51;;;;;;;;;;;;;;;;;;5069463;28;20032;-75
2023/09/03 06:52:19;;;;;;;;;;;;;;;;;;5070225;28;20440;-75
2023/09/03 06:54:46;;;;;;;;;;;;;;;;;;5069933;28;19931;-75
2023/09/03 06:57:13;;;;;;;;;;;;;;;;;;5071130;28;19932;-75
2023/09/03 06:59:41;;;;;;;;;;;;;;;;;;5065339;28;19925;-73
2023/09/03 07:02:08;;;;;;;;;;;;;;;;;;5079859;28;19956;-75
2023/09/03 07:04:35;;;;;;;;;;;;;;;;;;5079086;28;19924;-74
2023/09/03 07:07:02;;;;;;;;;;;;;;;;;;5065721;28;20026;-74
2023/09/03 07:09:29;;;;;;;;;;;;;;;;;;5070960;28;19993;-75
2023/09/03 07:11:56;;;;;;;;;;;;;;;;;;5086498;28;20341;-75
2023/09/03 07:14:23;;;;;;;;;;;;;;;;;;5077272;28;19929;-75
2023/09/03 07:16:51;;;;;;;;;;;;;;;;;;5074518;28;19925;-75
2023/09/03 07:19:18;;;;;;;;;;;;;;;;;;5069102;28;19928;-76
2023/09/03 07:21:45;;;;;;;;;;;;;;;;;;5077726;28;20646;-75
2023/09/03 07:24:12;;;;;;;;;;;;;;;;;;5087206;28;19986;-74
2023/09/03 07:26:39;;;;;;;;;;;;;;;;;;5075196;28;20342;-75
2023/09/03 07:29:06;;;;;;;;;;;;;;;;;;5075272;28;19978;-75
2023/09/03 07:31:37;;;;;;;;;;;;;;;;;;5071979;28;19943;-75
2023/09/03 07:34:04;;;;;;;;;;;;;;;;;;5072309;28;19978;-76
2023/09/03 07:36:31;;;;;;;;;;;;;;;;;;5062131;28;19978;-75
2023/09/03 07:38:58;;;;;;;;;;;;;;;;;;5067712;28;19947;-75
2023/09/03 07:41:25;;;;;;;;;;;;;;;;;;5068206;28;19970;-76
2023/09/03 07:43:52;;;;;;;;;;;;;;;;;;5066853;28;20367;-74
2023/09/03 07:46:19;;;;;;;;;;;;;;;;;;5062850;28;20338;-74
2023/09/03 07:48:46;;;;;;;;;;;;;;;;;;5073475;28;19925;-75
2023/09/03 07:51:15;;;;;;;;;;;;;;;;;;5065758;28;19929;-75
2023/09/03 07:53:42;;;;;;;;;;;;;;;;;;5072078;28;19986;-74
2023/09/03 07:56:09;;;;;;;;;;;;;;;;;;5072927;28;19924;-74
2023/09/03 07:58:38;;;;;;;;;;;;;;;;;;5068582;28;20205;-75
2023/09/03 08:01:05;;;;;;;;;;;;;;;;;;5056781;28;19931;-74
2023/09/03 08:03:32;;;;;;;;;;;;;;;;;;5074566;28;19931;-73
2023/09/03 08:06:00;;;;;;;;;;;;;;;;;;5073290;28;19968;-74
2023/09/03 08:08:27;;;;;;;;;;;;;;;;;;5070116;28;19928;-74
2023/09/03 08:10:54;;;;;;;;;;;;;;;;;;5070365;28;19924;-74
2023/09/03 08:13:21;;;;;;;;;;;;;;;;;;5068457;28;19925;-75
2023/09/03 08:15:48;;;;;;;;;;;;;;;;;;5068747;28;19929;-75
2023/09/03 08:18:15;;;;;;;;;;;;;;;;;;5071382;28;19925;-74
2023/09/03 08:20:42;;;;;;;;;;;;;;;;;;5070668;28;19970;-74
2023/09/03 08:23:09;;;;;;;;;;;;;;;;;;5068202;28;20395;-75
2023/09/03 08:25:36;;;;;;;;;;;;;;;;;;5063442;28;19956;-74
2023/09/03 08:28:05;;;;;;;;;;;;;;;;;;5066412;28;19929;-75
2023/09/03 08:30:32;;;;;;;;;;;;;;;;;;5071499;28;20539;-73
2023/09/03 08:32:59;;;;;;;;;;;;;;;;;;5066476;28;19924;-74
2023/09/03 08:35:27;;;;;;;;;;;;;;;;;;5068992;28;20017;-74
2023/09/03 08:37:54;;;;;;;;;;;;;;;;;;5092671;22;19975;-74
2023/09/03 08:40:21;;;;;;;;;;;;;;;;;;5085168;28;20154;-74
2023/09/03 08:42:48;;;;;;;;;;;;;;;;;;5087497;28;19982;-72
2023/09/03 08:45:15;;;;;;;;;;;;;;;;;;5083741;28;19955;-73
2023/09/03 08:47:44;;;;;;;;;;;;;;;;;;5083814;28;19938;-75
2023/09/03 08:50:11;;;;;;;;;;;;;;;;;;5090486;28;19925;-73
2023/09/03 08:52:38;;;;;;;;;;;;;;;;;;5090207;28;19932;-73
2023/09/03 08:55:05;;;;;;;;;;;;;;;;;;5091644;28;19985;-74
2023/09/03 08:57:34;;;;;;;;;;;;;;;;;;5085937;28;19932;-74
2023/09/03 09:00:03;;;;;;;;;;;;;;;;;;5079005;28;19924;-74
2023/09/03 09:02:30;;;;;;;;;;;;;;;;;;5090093;28;19932;-74
2023/09/03 09:04:57;;;;;;;;;;;;;;;;;;5089808;28;20017;-77
2023/09/03 09:07:25;;;;;;;;;;;;;;;;;;5089311;28;19931;-77
2023/09/03 09:09:52;;;;;;;;;;;;;;;;;;5085861;28;19924;-77
2023/09/03 09:12:19;;;;;;;;;;;;;;;;;;5082195;28;20000;-76
2023/09/03 09:14:46;;;;;;;;;;;;;;;;;;5076918;28;19929;-76
2023/09/03 09:17:13;;;;;;;;;;;;;;;;;;5084447;28;19931;-76
2023/09/03 09:19:40;;;;;;;;;;;;;;;;;;5075683;28;19971;-75
2023/09/03 09:22:07;;;;;;;;;;;;;;;;;;5076300;28;20021;-75
2023/09/03 09:24:34;;;;;;;;;;;;;;;;;;5083185;28;20391;-78
2023/09/03 09:27:01;;;;;;;;;;;;;;;;;;5083634;28;19924;-76
2023/09/03 09:29:28;;;;;;;;;;;;;;;;;;5089018;28;20290;-73
2023/09/03 09:31:55;;;;;;;;;;;;;;;;;;5082919;28;20379;-74
2023/09/03 09:34:22;;;;;;;;;;;;;;;;;;5090409;28;19937;-74
2023/09/03 09:36:49;;;;;;;;;;;;;;;;;;5080430;28;20465;-74
2023/09/03 09:39:16;;;;;;;;;;;;;;;;;;5084648;28;19970;-74
2023/09/03 09:41:43;;;;;;;;;;;;;;;;;;5087118;28;19982;-74
2023/09/03 09:44:11;;;;;;;;;;;;;;;;;;5092396;28;19928;-74
2023/09/03 09:46:38;;;;;;;;;;;;;;;;;;5087575;28;19934;-75
2023/09/03 09:49:05;;;;;;;;;;;;;;;;;;5081935;28;20292;-75
2023/09/03 09:51:32;;;;;;;;;;;;;;;;;;5091280;28;19932;-75
2023/09/03 09:53:59;;;;;;;;;;;;;;;;;;5084748;28;20327;-73
2023/09/03 09:56:27;;;;;;;;;;;;;;;;;;5083889;28;19942;-74
2023/09/03 09:58:54;;;;;;;;;;;;;;;;;;5086567;28;19993;-74
2023/09/03 10:01:21;;;;;;;;;;;;;;;;;;5087944;28;20744;-74
2023/09/03 10:03:48;;;;;;;;;;;;;;;;;;5091277;28;19928;-71
2023/09/03 10:06:15;;;;;;;;;;;;;;;;;;5091335;28;19967;-71
2023/09/03 10:08:42;;;;;;;;;;;;;;;;;;5084947;28;20012;-72
2023/09/03 10:11:09;;;;;;;;;;;;;;;;;;5090683;28;19932;-72
2023/09/03 10:13:38;;;;;;;;;;;;;;;;;;5079744;28;22418;-71
2023/09/03 10:16:05;;;;;;;;;;;;;;;;;;5080392;28;19925;-73
2023/09/03 10:18:33;;;;;;;;;;;;;;;;;;5084314;28;19977;-72
2023/09/03 10:21:00;;;;;;;;;;;;;;;;;;5084773;28;20042;-73
2023/09/03 10:23:27;;;;;;;;;;;;;;;;;;5089990;28;20280;-72
2023/09/03 10:25:54;;;;;;;;;;;;;;;;;;5088225;28;19924;-72
2023/09/03 10:28:22;;;;;;;;;;;;;;;;;;5080919;28;19924;-72
2023/09/03 10:30:51;;;;;;;;;;;;;;;;;;5085190;28;20313;-70
2023/09/03 10:33:18;;;;;;;;;;;;;;;;;;5085422;28;19924;-71
2023/09/03 10:35:45;;;;;;;;;;;;;;;;;;5093401;28;19977;-71
2023/09/03 10:38:12;;;;;;;;;;;;;;;;;;5094220;28;19931;-72
2023/09/03 10:40:39;;;;;;;;;;;;;;;;;;5093616;28;19977;-71
2023/09/03 10:43:08;;;;;;;;;;;;;;;;;;5088631;28;20577;-71
2023/09/03 10:45:35;;;;;;;;;;;;;;;;;;5089578;28;19932;-72
2023/09/03 10:48:02;;;;;;;;;;;;;;;;;;5089100;28;19977;-71
2023/09/03 10:50:29;;;;;;;;;;;;;;;;;;5092324;28;20306;-71
2023/09/03 10:52:59;;;;;;;;;;;;;;;;;;5093177;28;20311;-72
2023/09/03 10:55:26;;;;;;;;;;;;;;;;;;5094674;28;19924;-71
2023/09/03 10:57:53;;;;;;;;;;;;;;;;;;5089999;28;20066;-71
2023/09/03 11:00:23;;;;;;;;;;;;;;;;;;5087992;28;19932;-73
2023/09/03 11:02:50;;;;;;;;;;;;;;;;;;5083759;28;19928;-73
2023/09/03 11:05:19;;;;;;;;;;;;;;;;;;5086082;28;20011;-73
2023/09/03 11:07:46;;;;;;;;;;;;;;;;;;5093930;28;19924;-73
2023/09/03 11:10:13;;;;;;;;;;;;;;;;;;5088197;28;20371;-73
2023/09/03 11:12:40;;;;;;;;;;;;;;;;;;5093150;28;19928;-71
2023/09/03 11:15:07;;;;;;;;;;;;;;;;;;5082048;28;20429;-71
2023/09/03 11:17:34;;;;;;;;;;;;;;;;;;5088963;28;19928;-71
2023/09/03 11:20:01;;;;;;;;;;;;;;;;;;5077263;28;20029;-72
2023/09/03 11:22:32;;;;;;;;;;;;;;;;;;5081572;28;20283;-73
2023/09/03 11:25:00;;;;;;;;;;;;;;;;;;5094816;28;19924;-71
2023/09/03 11:27:27;;;;;;;;;;;;;;;;;;5078015;28;19931;-73
2023/09/03 11:29:54;;;;;;;;;;;;;;;;;;5090890;28;19959;-72
2023/09/03 11:32:21;;;;;;;;;;;;;;;;;;5090070;28;20383;-71
2023/09/03 11:34:48;;;;;;;;;;;;;;;;;;5085293;28;19924;-75
2023/09/03 11:37:15;;;;;;;;;;;;;;;;;;5092937;28;19977;-72
2023/09/03 11:39:42;;;;;;;;;;;;;;;;;;5090682;28;19928;-71
2023/09/03 11:42:09;;;;;;;;;;;;;;;;;;5086391;28;20295;-72
2023/09/03 11:44:36;;;;;;;;;;;;;;;;;;5089783;28;19924;-72
2023/09/03 11:47:03;;;;;;;;;;;;;;;;;;5092338;28;20337;-72
2023/09/03 11:49:30;;;;;;;;;;;;;;;;;;5084548;28;19974;-72
2023/09/03 11:51:57;;;;;;;;;;;;;;;;;;5088647;28;19936;-70
2023/09/03 11:54:24;;;;;;;;;;;;;;;;;;5092498;28;19981;-69
2023/09/03 11:56:51;;;;;;;;;;;;;;;;;;5093720;28;20390;-69
2023/09/03 11:59:18;;;;;;;;;;;;;;;;;;5094243;28;19924;-69
2023/09/03 12:01:45;;;;;;;;;;;;;;;;;;5082119;28;20388;-68
2023/09/03 12:04:12;;;;;;;;;;;;;;;;;;5087087;28;19924;-69
2023/09/03 12:06:39;;;;;;;;;;;;;;;;;;5082543;28;20447;-69
2023/09/03 12:09:06;;;;;;;;;;;;;;;;;;5084966;28;19925;-69
2023/09/03 12:11:33;;;;;;;;;;;;;;;;;;5091892;28;19932;-69
2023/09/03 12:14:00;;;;;;;;;;;;;;;;;;5088009;28;19969;-69
2023/09/03 12:16:28;;;;;;;;;;;;;;;;;;5086150;28;20036;-69
2023/09/03 12:18:55;;;;;;;;;;;;;;;;;;5095642;28;19946;-69
2023/09/03 12:21:22;;;;;;;;;;;;;;;;;;5092975;28;20375;-69
2023/09/03 12:23:49;;;;;;;;;;;;;;;;;;5092458;28;19935;-69
2023/09/03 12:26:16;;;;;;;;;;;;;;;;;;5094046;28;19959;-69
2023/09/03 12:28:43;;;;;;;;;;;;;;;;;;5090837;28;19928;-68
2023/09/03 12:31:10;;;;;;;;;;;;;;;;;;5092447;28;19957;-69
2023/09/03 12:33:37;;;;;;;;;;;;;;;;;;5088790;28;19978;-69
2023/09/03 12:36:04;;;;;;;;;;;;;;;;;;5091332;28;19928;-72
2023/09/03 12:38:31;;;;;;;;;;;;;;;;;;5087737;28;19974;-72
2023/09/03 12:40:59;;;;;;;;;;;;;;;;;;5089294;28;19977;-72
2023/09/03 12:43:26;;;;;;;;;;;;;;;;;;5083137;28;19925;-73
2023/09/03 12:45:53;;;;;;;;;;;;;;;;;;5076192;28;19924;-73
2023/09/03 12:48:20;;;;;;;;;;;;;;;;;;5092616;28;19964;-73
2023/09/03 12:50:47;;;;;;;;;;;;;;;;;;5086156;28;20467;-72
2023/09/03 12:53:14;;;;;;;;;;;;;;;;;;5093376;28;19924;-73
2023/09/03 12:55:41;;;;;;;;;;;;;;;;;;5093562;28;19928;-71
2023/09/03 12:58:08;;;;;;;;;;;;;;;;;;5091112;28;20368;-72
2023/09/03 13:00:35;;;;;;;;;;;;;;;;;;5092949;28;19931;-72
2023/09/03 13:03:02;;;;;;;;;;;;;;;;;;5092823;28;20001;-73
2023/09/03 13:05:29;;;;;;;;;;;;;;;;;;5092983;28;19974;-72
2023/09/03 13:07:56;;;;;;;;;;;;;;;;;;5093207;28;19924;-73
2023/09/03 13:10:23;;;;;;;;;;;;;;;;;;5086725;28;19996;-72
2023/09/03 13:12:50;;;;;;;;;;;;;;;;;;5091921;28;19928;-73
2023/09/03 13:15:17;;;;;;;;;;;;;;;;;;5093258;28;20326;-73
2023/09/03 13:17:44;;;;;;;;;;;;;;;;;;5093206;28;20367;-73
2023/09/03 13:20:11;;;;;;;;;;;;;;;;;;5086883;28;19978;-72
2023/09/03 13:22:38;;;;;;;;;;;;;;;;;;5072817;28;19924;-72
2023/09/03 13:25:05;;;;;;;;;;;;;;;;;;5072820;28;19924;-72
2023/09/03 13:27:32;;;;;;;;;;;;;;;;;;5078995;28;19924;-73
2023/09/03 13:29:59;;;;;;;;;;;;;;;;;;5087929;28;19982;-73
2023/09/03 13:32:26;;;;;;;;;;;;;;;;;;5076589;28;19969;-73
2023/09/03 13:34:53;;;;;;;;;;;;;;;;;;5086062;28;19928;-73
2023/09/03 13:37:21;;;;;;;;;;;;;;;;;;5080086;28;19925;-73
2023/09/03 13:39:48;;;;;;;;;;;;;;;;;;5087816;28;19924;-73
2023/09/03 13:42:15;;;;;;;;;;;;;;;;;;5091752;28;19924;-73
2023/09/03 13:44:42;;;;;;;;;;;;;;;;;;5092487;28;19927;-73
2023/09/03 13:47:09;;;;;;;;;;;;;;;;;;5092402;28;20367;-73
2023/09/03 13:49:36;;;;;;;;;;;;;;;;;;5091730;28;19924;-73
2023/09/03 13:52:03;;;;;;;;;;;;;;;;;;5092789;28;19946;-73
2023/09/03 13:54:30;;;;;;;;;;;;;;;;;;5083437;28;19936;-73
2023/09/03 13:56:57;;;;;;;;;;;;;;;;;;5076984;28;19932;-73
2023/09/03 13:59:24;;;;;;;;;;;;;;;;;;5092423;28;19977;-71
2023/09/03 14:01:51;;;;;;;;;;;;;;;;;;5092109;28;19924;-73
2023/09/03 14:04:18;;;;;;;;;;;;;;;;;;5085383;28;19928;-72
2023/09/03 14:06:45;;;;;;;;;;;;;;;;;;5092453;28;20272;-72
2023/09/03 14:09:12;;;;;;;;;;;;;;;;;;5092154;28;19985;-72
2023/09/03 14:11:39;;;;;;;;;;;;;;;;;;5091048;28;20010;-72
2023/09/03 14:14:06;;;;;;;;;;;;;;;;;;5085934;28;19928;-72
2023/09/03 14:16:33;;;;;;;;;;;;;;;;;;5072323;28;20477;-73
2023/09/03 14:19:01;;;;;;;;;;;;;;;;;;5072042;28;19982;-73
2023/09/03 14:21:28;;;;;;;;;;;;;;;;;;5083163;28;19993;-72
2023/09/03 14:23:55;;;;;;;;;;;;;;;;;;5091726;28;19924;-72
2023/09/03 14:26:22;;;;;;;;;;;;;;;;;;5092260;28;20382;-72
2023/09/03 14:28:51;;;;;;;;;;;;;;;;;;5086765;28;19977;-71
2023/09/03 14:31:18;;;;;;;;;;;;;;;;;;5092586;28;19924;-72
2023/09/03 14:33:45;;;;;;;;;;;;;;;;;;5092229;28;19924;-71
2023/09/03 14:36:12;;;;;;;;;;;;;;;;;;5091823;28;19928;-69
2023/09/03 14:38:39;;;;;;;;;;;;;;;;;;5092025;28;20375;-68
2023/09/03 14:41:06;;;;;;;;;;;;;;;;;;5075780;28;19925;-69
2023/09/03 14:43:33;;;;;;;;;;;;;;;;;;5080172;28;19931;-69
2023/09/03 14:46:00;;;;;;;;;;;;;;;;;;5091206;28;20444;-69
2023/09/03 14:48:28;;;;;;;;;;;;;;;;;;5091761;28;20417;-69
2023/09/03 14:50:55;;;;;;;;;;;;;;;;;;5092039;28;20299;-69
2023/09/03 14:53:22;;;;;;;;;;;;;;;;;;5091698;28;20015;-69
2023/09/03 14:55:49;;;;;;;;;;;;;;;;;;5091878;28;20444;-69
2023/09/03 14:58:16;;;;;;;;;;;;;;;;;;5083521;28;19932;-68
2023/09/03 15:00:43;;;;;;;;;;;;;;;;;;5073311;28;19924;-70
2023/09/03 15:03:10;;;;;;;;;;;;;;;;;;5086329;28;19928;-69
2023/09/03 15:05:37;;;;;;;;;;;;;;;;;;5091853;28;19982;-68
2023/09/03 15:08:04;;;;;;;;;;;;;;;;;;5091405;28;19924;-68
2023/09/03 15:10:31;;;;;;;;;;;;;;;;;;5091893;28;19924;-68
2023/09/03 15:12:58;;;;;;;;;;;;;;;;;;5091120;28;19924;-68
2023/09/03 15:15:25;;;;;;;;;;;;;;;;;;5089438;28;20544;-68
2023/09/03 15:17:52;;;;;;;;;;;;;;;;;;5091145;28;19925;-69
2023/09/03 15:20:19;;;;;;;;;;;;;;;;;;5091009;28;19925;-69
2023/09/03 15:22:46;;;;;;;;;;;;;;;;;;5095620;28;19927;-69
2023/09/03 15:25:13;;;;;;;;;;;;;;;;;;5095601;28;19928;-74
2023/09/03 15:27:40;;;;;;;;;;;;;;;;;;5094774;28;19928;-73
2023/09/03 15:30:07;;;;;;;;;;;;;;;;;;5075167;28;20337;-72
2023/09/03 15:32:34;;;;;;;;;;;;;;;;;;5076522;28;19924;-73
2023/09/03 15:35:01;;;;;;;;;;;;;;;;;;5095175;28;19924;-72
2023/09/03 15:37:28;;;;;;;;;;;;;;;;;;5084257;28;19936;-73
2023/09/03 15:39:55;;;;;;;;;;;;;;;;;;5090901;28;19977;-73
2023/09/03 15:42:22;;;;;;;;;;;;;;;;;;5092653;28;20433;-73
2023/09/03 15:44:49;;;;;;;;;;;;;;;;;;5087541;28;19928;-73
2023/09/03 15:47:16;;;;;;;;;;;;;;;;;;5085692;28;19924;-72
2023/09/03 15:49:43;;;;;;;;;;;;;;;;;;5074228;28;20400;-73
2023/09/03 15:52:10;;;;;;;;;;;;;;;;;;5090886;28;19924;-73
2023/09/03 15:54:39;;;;;;;;;;;;;;;;;;5087347;28;19989;-73
2023/09/03 15:57:06;;;;;;;;;;;;;;;;;;5090497;28;19931;-73
2023/09/03 15:59:33;;;;;;;;;;;;;;;;;;5090735;28;19969;-73
2023/09/03 16:02:01;;;;;;;;;;;;;;;;;;5094189;28;20339;-73
2023/09/03 16:04:28;;;;;;;;;;;;;;;;;;5092526;28;19924;-73
2023/09/03 16:06:55;;;;;;;;;;;;;;;;;;5093980;28;19924;-73
2023/09/03 16:09:22;;;;;;;;;;;;;;;;;;5079233;28;19924;-73
2023/09/03 16:11:49;;;;;;;;;;;;;;;;;;5090362;28;20416;-73
2023/09/03 16:14:16;;;;;;;;;;;;;;;;;;5093495;28;19941;-74
2023/09/03 16:16:43;;;;;;;;;;;;;;;;;;5090568;28;19963;-72
2023/09/03 16:19:10;;;;;;;;;;;;;;;;;;5087851;28;20419;-72
2023/09/03 16:21:39;;;;;;;;;;;;;;;;;;5084934;28;19924;-72
2023/09/03 16:24:06;;;;;;;;;;;;;;;;;;5082590;28;19924;-71
2023/09/03 16:26:33;;;;;;;;;;;;;;;;;;5083614;28;19928;-71
2023/09/03 16:29:01;;;;;;;;;;;;;;;;;;5088518;28;19930;-69
2023/09/03 16:31:27;;;;;;;;;;;;;;;;;;5083571;28;19970;-68
2023/09/03 16:33:54;;;;;;;;;;;;;;;;;;5093372;28;20345;-69
2023/09/03 16:36:21;;;;;;;;;;;;;;;;;;5090266;28;19923;-69
2023/09/03 16:38:49;;;;;;;;;;;;;;;;;;5090229;28;20390;-69
2023/09/03 16:41:16;;;;;;;;;;;;;;;;;;5092608;28;19928;-70
2023/09/03 16:43:43;;;;;;;;;;;;;;;;;;5092290;28;20015;-70